Time;durP1;ratioP1;P1;durP2;ratioP2;P2;SDS_P1;SDS_P2;PMS_P1;PMS_P2;Temp;Humidity;BMP_temperature;BMP_pressure;BME280_temperature;BME280_humidity;BME280_pressure;Samples;Min_cycle;Max_cycle;Signal;HPM_P1;HPM_P2
2022/07/09 00:02:59;;;;;;;5.22;2.38;;;;;;;;;;6313357;28;20047;-86
2022/07/09 00:06:02;;;;;;;9.75;3.00;;;;;;;;;;6313152;28;20068;-88
2022/07/09 00:09:04;;;;;;;6.07;2.97;;;;;;;;;;6316353;28;20049;-86
2022/07/09 00:12:08;;;;;;;5.35;3.30;;;;;;;;;;6314746;28;20359;-86
2022/07/09 00:15:11;;;;;;;5.50;2.97;;;;;;;;;;6308745;28;20091;-87
2022/07/09 00:18:13;;;;;;;4.07;3.10;;;;;;;;;;6316638;28;20069;-88
2022/07/09 00:21:15;;;;;;;7.93;3.10;;;;;;;;;;6316754;28;20101;-89
2022/07/09 00:24:16;;;;;;;5.20;2.83;;;;;;;;;;6316110;28;20351;-87
2022/07/09 00:27:19;;;;;;;4.63;3.15;;;;;;;;;;6312769;28;20075;-87
2022/07/09 00:30:21;;;;;;;6.90;2.80;;;;;;;;;;6311031;28;20052;-87
2022/07/09 00:33:23;;;;;;;3.00;2.53;;;;;;;;;;6312746;28;20056;-85
2022/07/09 00:36:25;;;;;;;6.80;2.85;;;;;;;;;;6318984;28;20048;-85
2022/07/09 00:39:27;;;;;;;5.20;2.70;;;;;;;;;;6315455;28;20064;-86
2022/07/09 00:42:30;;;;;;;3.30;2.28;;;;;;;;;;6319809;28;20346;-86
2022/07/09 00:45:32;;;;;;;2.90;2.03;;;;;;;;;;6320655;28;20213;-86
2022/07/09 00:48:33;;;;;;;4.97;1.80;;;;;;;;;;6318066;28;20039;-85
2022/07/09 00:51:35;;;;;;;2.17;1.50;;;;;;;;;;6318631;28;20060;-86
2022/07/09 00:54:37;;;;;;;4.10;1.83;;;;;;;;;;6318450;28;20056;-86
2022/07/09 00:57:41;;;;;;;5.88;1.70;;;;;;;;;;6321261;28;20071;-85
2022/07/09 01:00:44;;;;;;;2.70;1.75;;;;;;;;;;6317691;28;20048;-85
2022/07/09 01:03:46;;;;;;;2.80;1.70;;;;;;;;;;6315425;28;20060;-86
2022/07/09 01:06:47;;;;;;;4.97;1.63;;;;;;;;;;6319853;28;20045;-86
2022/07/09 01:09:49;;;;;;;2.75;1.40;;;;;;;;;;6321806;28;20328;-86
2022/07/09 01:12:52;;;;;;;3.38;1.40;;;;;;;;;;6317097;28;20319;-85
2022/07/09 01:15:54;;;;;;;8.40;1.38;;;;;;;;;;6319569;28;20048;-86
2022/07/09 01:18:55;;;;;;;2.47;1.30;;;;;;;;;;6316869;28;20264;-87
2022/07/09 01:21:59;;;;;;;2.28;1.10;;;;;;;;;;6316630;28;20056;-86
2022/07/09 01:25:01;;;;;;;2.08;1.08;;;;;;;;;;6318433;28;20098;-86
2022/07/09 01:28:05;;;;;;;2.80;1.08;;;;;;;;;;6318161;28;20059;-85
2022/07/09 01:31:07;;;;;;;2.33;1.00;;;;;;;;;;6315669;28;20079;-85
2022/07/09 01:34:08;;;;;;;6.88;1.45;;;;;;;;;;6319110;28;20059;-84
2022/07/09 01:37:12;;;;;;;1.48;1.10;;;;;;;;;;6322488;28;20040;-85
2022/07/09 01:40:14;;;;;;;2.00;1.10;;;;;;;;;;6318314;28;20094;-84
2022/07/09 01:43:16;;;;;;;4.88;1.52;;;;;;;;;;6316550;28;20075;-85
2022/07/09 01:46:18;;;;;;;7.20;1.33;;;;;;;;;;6318472;28;20067;-86
2022/07/09 01:49:19;;;;;;;3.15;1.42;;;;;;;;;;6314654;28;20346;-86
2022/07/09 01:52:22;;;;;;;2.50;1.30;;;;;;;;;;6317469;28;20052;-86
2022/07/09 01:55:24;;;;;;;1.70;1.00;;;;;;;;;;6317860;28;20076;-87
2022/07/09 01:58:26;;;;;;;2.38;1.17;;;;;;;;;;6317121;28;20066;-84
2022/07/09 02:01:28;;;;;;;1.83;1.13;;;;;;;;;;6319565;28;20265;-86
2022/07/09 02:04:30;;;;;;;2.65;1.40;;;;;;;;;;6318066;28;20044;-85
2022/07/09 02:07:33;;;;;;;1.73;1.00;;;;;;;;;;6316813;28;20271;-85
2022/07/09 02:10:35;;;;;;;3.83;1.30;;;;;;;;;;6317920;28;20138;-86
2022/07/09 02:13:36;;;;;;;2.75;1.00;;;;;;;;;;6313822;28;20051;-83
2022/07/09 02:16:38;;;;;;;1.85;1.10;;;;;;;;;;6319480;28;20342;-86
2022/07/09 02:19:40;;;;;;;2.03;1.10;;;;;;;;;;6316205;28;20045;-85
2022/07/09 02:22:43;;;;;;;3.22;1.23;;;;;;;;;;6318593;28;20068;-85
2022/07/09 02:25:45;;;;;;;7.18;1.63;;;;;;;;;;6316316;28;20066;-86
2022/07/09 02:28:46;;;;;;;4.05;2.05;;;;;;;;;;6315441;28;20111;-85
2022/07/09 02:31:48;;;;;;;2.10;1.45;;;;;;;;;;6316160;28;20063;-85
2022/07/09 02:34:50;;;;;;;1.20;1.10;;;;;;;;;;6313035;28;20044;-84
2022/07/09 02:37:53;;;;;;;3.17;1.25;;;;;;;;;;6319307;28;20250;-84
2022/07/09 02:40:55;;;;;;;3.97;1.40;;;;;;;;;;6316358;28;20235;-85
2022/07/09 02:43:57;;;;;;;4.85;1.38;;;;;;;;;;6313734;28;20593;-85
2022/07/09 02:46:59;;;;;;;1.35;1.05;;;;;;;;;;6317393;28;20107;-86
2022/07/09 02:50:00;;;;;;;2.55;1.35;;;;;;;;;;6313540;28;20112;-85
2022/07/09 02:53:04;;;;;;;2.63;1.17;;;;;;;;;;6315125;28;20055;-85
2022/07/09 02:56:06;;;;;;;1.88;1.10;;;;;;;;;;6313676;28;20044;-86
2022/07/09 02:59:08;;;;;;;4.30;1.50;;;;;;;;;;6317738;28;20994;-86
2022/07/09 03:02:10;;;;;;;2.80;1.23;;;;;;;;;;6314809;28;20311;-86
2022/07/09 03:05:11;;;;;;;3.63;1.70;;;;;;;;;;6313791;28;20266;-85
2022/07/09 03:08:15;;;;;;;4.00;1.30;;;;;;;;;;6314204;28;20048;-85
2022/07/09 03:11:16;;;;;;;3.30;1.23;;;;;;;;;;6319789;28;20067;-86
2022/07/09 03:14:18;;;;;;;3.17;1.27;;;;;;;;;;6313865;28;20039;-84
2022/07/09 03:17:20;;;;;;;2.60;1.17;;;;;;;;;;6317651;28;20036;-85
2022/07/09 03:20:22;;;;;;;4.45;1.10;;;;;;;;;;6312958;28;20047;-85
2022/07/09 03:23:25;;;;;;;2.50;1.20;;;;;;;;;;6315669;28;20251;-84
2022/07/09 03:26:27;;;;;;;3.58;1.33;;;;;;;;;;6316329;28;20366;-85
2022/07/09 03:29:28;;;;;;;4.18;1.13;;;;;;;;;;6311275;28;20044;-85
2022/07/09 03:32:30;;;;;;;4.10;1.40;;;;;;;;;;6308381;28;20048;-86
2022/07/09 03:35:32;;;;;;;5.07;1.50;;;;;;;;;;6312090;28;20044;-87
2022/07/09 03:38:35;;;;;;;2.28;1.08;;;;;;;;;;6318040;28;20146;-86
2022/07/09 03:41:37;;;;;;;3.50;1.33;;;;;;;;;;6312997;28;20059;-87
2022/07/09 03:44:39;;;;;;;2.85;1.30;;;;;;;;;;6313735;28;20044;-87
2022/07/09 03:47:41;;;;;;;3.05;1.67;;;;;;;;;;6313912;28;20052;-88
2022/07/09 03:50:42;;;;;;;4.55;1.58;;;;;;;;;;6312378;28;20223;-88
2022/07/09 03:53:45;;;;;;;3.75;1.50;;;;;;;;;;6314985;28;20075;-88
2022/07/09 03:56:47;;;;;;;2.08;1.30;;;;;;;;;;6313689;28;20323;-88
2022/07/09 03:59:49;;;;;;;5.40;1.70;;;;;;;;;;6310535;28;20217;-88
2022/07/09 04:02:50;;;;;;;2.72;1.30;;;;;;;;;;6314181;28;21022;-87
2022/07/09 04:05:52;;;;;;;8.70;1.73;;;;;;;;;;6315498;28;20044;-83
2022/07/09 04:08:55;;;;;;;2.65;1.40;;;;;;;;;;6315648;28;20048;-86
2022/07/09 04:11:57;;;;;;;2.78;1.48;;;;;;;;;;6315680;28;20044;-88
2022/07/09 04:14:59;;;;;;;2.80;1.17;;;;;;;;;;6316834;28;20242;-87
2022/07/09 04:18:00;;;;;;;6.00;1.52;;;;;;;;;;6321306;28;20070;-87
2022/07/09 04:21:02;;;;;;;3.40;1.10;;;;;;;;;;6317172;28;20051;-87
2022/07/09 04:24:06;;;;;;;3.20;1.17;;;;;;;;;;6316344;28;20045;-87
2022/07/09 04:27:08;;;;;;;2.70;1.10;;;;;;;;;;6315775;28;20041;-88
2022/07/09 04:30:11;;;;;;;4.20;1.10;;;;;;;;;;6318202;28;20055;-88
2022/07/09 04:33:13;;;;;;;1.75;0.80;;;;;;;;;;6317729;28;20052;-85
2022/07/09 04:36:15;;;;;;;3.03;1.30;;;;;;;;;;6316783;28;20590;-87
2022/07/09 04:39:18;;;;;;;2.20;1.10;;;;;;;;;;6318345;28;20173;-87
2022/07/09 04:42:20;;;;;;;3.08;1.42;;;;;;;;;;6317698;28;20045;-87
2022/07/09 04:45:22;;;;;;;4.50;1.35;;;;;;;;;;6315021;28;20128;-85
2022/07/09 04:48:24;;;;;;;3.90;1.13;;;;;;;;;;6320265;28;20044;-86
2022/07/09 04:51:25;;;;;;;2.92;1.13;;;;;;;;;;6317228;28;20082;-86
2022/07/09 04:54:28;;;;;;;3.70;1.35;;;;;;;;;;6318734;28;20044;-85
2022/07/09 04:57:30;;;;;;;1.80;1.17;;;;;;;;;;6318099;28;20052;-86
2022/07/09 05:00:33;;;;;;;2.75;1.02;;;;;;;;;;6319127;28;20286;-87
2022/07/09 05:03:34;;;;;;;2.20;1.23;;;;;;;;;;6320987;28;20314;-88
2022/07/09 05:06:36;;;;;;;2.78;1.58;;;;;;;;;;6320950;28;20323;-85
2022/07/09 05:09:40;;;;;;;2.38;1.08;;;;;;;;;;6321555;28;20056;-89
2022/07/09 05:12:42;;;;;;;1.73;0.98;;;;;;;;;;6318591;28;20424;-87
2022/07/09 05:15:44;;;;;;;2.27;1.50;;;;;;;;;;6318224;28;20204;-88
2022/07/09 05:18:46;;;;;;;3.35;1.45;;;;;;;;;;6318842;28;20066;-89
2022/07/09 05:21:47;;;;;;;5.70;1.40;;;;;;;;;;6319192;28;20341;-89
2022/07/09 05:24:51;;;;;;;6.00;1.38;;;;;;;;;;6318951;28;20346;-89
2022/07/09 05:27:53;;;;;;;2.40;1.20;;;;;;;;;;6316723;28;20087;-85
2022/07/09 05:30:54;;;;;;;2.83;1.02;;;;;;;;;;6320605;28;20056;-88
2022/07/09 05:33:56;;;;;;;2.70;1.00;;;;;;;;;;6316447;28;20044;-86
2022/07/09 05:36:59;;;;;;;46.60;2.95;;;;;;;;;;6317002;28;20063;-88
2022/07/09 05:40:05;;;;;;;5.55;1.42;;;;;;;;;;6319309;28;20348;-87
2022/07/09 05:43:07;;;;;;;3.15;1.20;;;;;;;;;;6315878;28;20345;-88
2022/07/09 05:46:08;;;;;;;2.25;1.00;;;;;;;;;;6314713;28;20059;-86
2022/07/09 05:49:10;;;;;;;3.90;1.08;;;;;;;;;;6316680;28;20060;-83
2022/07/09 05:52:12;;;;;;;2.67;1.27;;;;;;;;;;6316317;28;20041;-80
2022/07/09 05:55:15;;;;;;;4.53;1.20;;;;;;;;;;6316658;28;20074;-79
2022/07/09 05:58:17;;;;;;;4.57;1.27;;;;;;;;;;6316265;28;20036;-79
2022/07/09 06:01:18;;;;;;;2.95;1.30;;;;;;;;;;6318321;28;20066;-78
2022/07/09 06:04:20;;;;;;;2.60;1.13;;;;;;;;;;6315551;28;20351;-78
2022/07/09 06:07:22;;;;;;;3.60;1.35;;;;;;;;;;6316547;28;20078;-80
2022/07/09 06:10:26;;;;;;;7.00;1.15;;;;;;;;;;6321537;28;20061;-78
2022/07/09 06:13:28;;;;;;;4.35;1.50;;;;;;;;;;6318362;28;20112;-76
2022/07/09 06:16:29;;;;;;;3.60;1.23;;;;;;;;;;6311946;28;20048;-76
2022/07/09 06:19:31;;;;;;;2.05;1.40;;;;;;;;;;6316044;28;20227;-77
2022/07/09 06:22:33;;;;;;;4.22;1.40;;;;;;;;;;6317156;28;20063;-79
2022/07/09 06:25:37;;;;;;;4.63;1.30;;;;;;;;;;6314039;28;20265;-76
2022/07/09 06:28:39;;;;;;;6.65;1.52;;;;;;;;;;6311960;28;20062;-79
2022/07/09 06:31:40;;;;;;;1.80;1.27;;;;;;;;;;6316650;28;20071;-76
2022/07/09 06:34:42;;;;;;;2.58;1.30;;;;;;;;;;6311339;28;20056;-75
2022/07/09 06:37:44;;;;;;;2.97;1.20;;;;;;;;;;6313333;28;20113;-75
2022/07/09 06:40:47;;;;;;;3.25;1.30;;;;;;;;;;6314781;28;20223;-76
2022/07/09 06:43:48;;;;;;;2.50;1.30;;;;;;;;;;6311787;28;20056;-76
2022/07/09 06:46:50;;;;;;;3.72;1.75;;;;;;;;;;6310532;28;20208;-75
2022/07/09 06:49:52;;;;;;;5.30;1.60;;;;;;;;;;6314502;28;20047;-75
2022/07/09 06:52:53;;;;;;;2.95;1.50;;;;;;;;;;6315831;28;20315;-79
2022/07/09 06:55:57;;;;;;;3.15;1.50;;;;;;;;;;6310466;28;20271;-75
2022/07/09 06:58:58;;;;;;;2.75;1.67;;;;;;;;;;6314712;28;20052;-75
2022/07/09 07:02:00;;;;;;;8.73;1.70;;;;;;;;;;6316424;28;20059;-75
2022/07/09 07:05:02;;;;;;;1.85;1.13;;;;;;;;;;6314242;28;20051;-74
2022/07/09 07:08:04;;;;;;;3.28;1.60;;;;;;;;;;6309033;28;20347;-77
2022/07/09 07:11:07;;;;;;;3.65;1.98;;;;;;;;;;6316449;28;20048;-86
2022/07/09 07:14:08;;;;;;;2.22;1.10;;;;;;;;;;6315297;28;20122;-85
2022/07/09 07:17:10;;;;;;;1.98;1.13;;;;;;;;;;6315497;28;20044;-81
2022/07/09 07:20:12;;;;;;;4.93;1.05;;;;;;;;;;6315033;28;20048;-82
2022/07/09 07:23:16;;;;;;;1.55;1.13;;;;;;;;;;6310591;28;20060;-76
2022/07/09 07:26:19;;;;;;;2.72;1.40;;;;;;;;;;6314379;28;20055;-75
2022/07/09 07:29:21;;;;;;;5.90;1.48;;;;;;;;;;6320338;28;20350;-81
2022/07/09 07:32:22;;;;;;;1.83;1.15;;;;;;;;;;6309295;28;20055;-77
2022/07/09 07:35:24;;;;;;;3.85;1.33;;;;;;;;;;6312407;28;20086;-77
2022/07/09 07:38:27;;;;;;;1.38;1.05;;;;;;;;;;6314911;28;20113;-77
2022/07/09 07:41:30;;;;;;;3.53;1.38;;;;;;;;;;6314399;28;20071;-78
2022/07/09 07:44:32;;;;;;;;;;;;;;;;;;6310849;28;20047;-78
2022/07/09 07:47:33;;;;;;;2.38;1.02;;;;;;;;;;6313527;28;19916;-88
2022/07/09 07:50:38;;;;;;;2.75;1.20;;;;;;;;;;6316549;28;20358;-84
2022/07/09 07:53:40;;;;;;;2.30;1.55;;;;;;;;;;6317421;28;20048;-84
2022/07/09 07:56:43;;;;;;;1.52;1.10;;;;;;;;;;6313293;28;20062;-82
2022/07/09 07:59:46;;;;;;;;;;;;;;;;;;6314560;28;20063;-86
2022/07/09 08:02:48;;;;;;;2.20;1.42;;;;;;;;;;6315055;28;20140;-84
2022/07/09 08:05:49;;;;;;;3.38;1.55;;;;;;;;;;6316071;28;20048;-85
2022/07/09 08:08:51;;;;;;;1.80;1.10;;;;;;;;;;6317998;28;20051;-85
2022/07/09 08:11:54;;;;;;;2.10;0.90;;;;;;;;;;6316262;28;20059;-82
2022/07/09 08:14:56;;;;;;;1.45;0.90;;;;;;;;;;6312677;28;20078;-84
2022/07/09 08:17:57;;;;;;;1.52;1.10;;;;;;;;;;6313627;28;20060;-85
2022/07/09 08:20:59;;;;;;;1.95;0.82;;;;;;;;;;6312204;28;20243;-82
2022/07/09 08:24:04;;;;;;;1.50;1.10;;;;;;;;;;6314366;28;20052;-82
2022/07/09 08:27:07;;;;;;;1.50;0.90;;;;;;;;;;6318594;28;20352;-83
2022/07/09 08:30:09;;;;;;;0.70;0.70;;;;;;;;;;6315760;28;20448;-83
2022/07/09 08:33:11;;;;;;;7.78;1.05;;;;;;;;;;6318423;28;20052;-80
2022/07/09 08:36:13;;;;;;;2.10;1.17;;;;;;;;;;6316360;28;20048;-79
2022/07/09 08:39:14;;;;;;;2.33;0.90;;;;;;;;;;6314502;28;20048;-77
2022/07/09 08:42:17;;;;;;;1.30;0.80;;;;;;;;;;6313651;28;20253;-78
2022/07/09 08:45:19;;;;;;;2.75;0.80;;;;;;;;;;6314531;28;20048;-79
2022/07/09 08:48:21;;;;;;;13.07;1.20;;;;;;;;;;6316001;28;20056;-82
2022/07/09 08:51:23;;;;;;;3.85;1.00;;;;;;;;;;6314029;28;20045;-83
2022/07/09 08:54:25;;;;;;;4.40;1.10;;;;;;;;;;6317673;28;20292;-81
2022/07/09 08:57:28;;;;;;;3.17;1.13;;;;;;;;;;6315741;28;20052;-84
2022/07/09 09:00:30;;;;;;;2.75;1.13;;;;;;;;;;6315089;28;20231;-83
2022/07/09 09:03:31;;;;;;;2.15;0.68;;;;;;;;;;6319207;28;20270;-83
2022/07/09 09:06:37;;;;;;;2.30;0.80;;;;;;;;;;6315785;28;20051;-81
2022/07/09 09:09:39;;;;;;;2.10;1.00;;;;;;;;;;6317387;28;20041;-79
2022/07/09 09:12:42;;;;;;;2.40;0.70;;;;;;;;;;6314672;28;20048;-79
2022/07/09 09:15:44;;;;;;;5.55;0.90;;;;;;;;;;6317229;28;20115;-78
2022/07/09 09:18:47;;;;;;;1.70;0.70;;;;;;;;;;6316405;28;20048;-78
2022/07/09 09:21:53;;;;;;;3.65;0.85;;;;;;;;;;6315958;28;20216;-78
2022/07/09 09:24:54;;;;;;;1.27;0.70;;;;;;;;;;6318906;28;20368;-79
2022/07/09 09:27:58;;;;;;;0.80;0.63;;;;;;;;;;6315568;28;20261;-78
2022/07/09 09:31:00;;;;;;;3.50;1.00;;;;;;;;;;6314935;28;20040;-79
2022/07/09 09:34:11;;;;;;;1.90;0.82;;;;;;;;;;6316099;28;20056;-79
2022/07/09 09:37:13;;;;;;;2.38;0.70;;;;;;;;;;6311558;28;20044;-78
2022/07/09 09:40:16;;;;;;;1.70;0.90;;;;;;;;;;6314279;28;20059;-80
2022/07/09 09:43:23;;;;;;;1.33;0.60;;;;;;;;;;6320304;28;20238;-79
2022/07/09 09:46:25;;;;;;;1.35;0.70;;;;;;;;;;6319007;28;20059;-77
2022/07/09 09:49:26;;;;;;;1.50;0.70;;;;;;;;;;6313679;28;20052;-81
2022/07/09 09:52:28;;;;;;;1.70;0.60;;;;;;;;;;6310379;28;20060;-79
2022/07/09 09:55:30;;;;;;;1.00;0.60;;;;;;;;;;6311655;28;20069;-79
2022/07/09 09:58:33;;;;;;;1.45;0.80;;;;;;;;;;6310899;28;20087;-83
2022/07/09 10:01:35;;;;;;;1.67;0.60;;;;;;;;;;6318264;28;20044;-79
2022/07/09 10:04:37;;;;;;;6.97;0.68;;;;;;;;;;6313324;28;20060;-82
2022/07/09 10:07:40;;;;;;;0.88;0.60;;;;;;;;;;6314145;28;20357;-82
2022/07/09 10:10:50;;;;;;;;;;;;;;;;;;6314016;28;20055;-77
2022/07/09 10:13:55;;;;;;;1.95;0.65;;;;;;;;;;6315439;28;20212;-77
2022/07/09 10:16:57;;;;;;;1.23;0.70;;;;;;;;;;6314332;28;20040;-78
2022/07/09 10:20:04;;;;;;;2.10;0.80;;;;;;;;;;6313365;28;20269;-80
2022/07/09 10:23:05;;;;;;;2.03;0.80;;;;;;;;;;6316803;28;20418;-80
2022/07/09 10:26:07;;;;;;;1.25;0.80;;;;;;;;;;6312254;28;20060;-82
2022/07/09 10:29:24;;;;;;;2.60;0.80;;;;;;;;;;6312842;28;20044;-76
2022/07/09 10:32:27;;;;;;;0.57;0.55;;;;;;;;;;6311649;28;20111;-79
2022/07/09 10:35:29;;;;;;;1.45;0.50;;;;;;;;;;6314490;28;20055;-79
2022/07/09 10:38:35;;;;;;;1.40;0.60;;;;;;;;;;6314585;28;20052;-73
2022/07/09 10:41:37;;;;;;;0.57;0.50;;;;;;;;;;6309952;28;20063;-75
2022/07/09 10:44:41;;;;;;;0.60;0.57;;;;;;;;;;6317063;28;20055;-77
2022/07/09 10:47:43;;;;;;;1.48;0.60;;;;;;;;;;6311982;28;20400;-76
2022/07/09 10:50:46;;;;;;;3.90;0.80;;;;;;;;;;6314885;28;20044;-78
2022/07/09 10:53:48;;;;;;;4.78;0.90;;;;;;;;;;6318339;28;20086;-76
2022/07/09 10:56:50;;;;;;;1.40;0.55;;;;;;;;;;6311667;28;20055;-77
2022/07/09 10:59:53;;;;;;;2.13;0.95;;;;;;;;;;6311909;28;20332;-76
2022/07/09 11:02:56;;;;;;;2.55;0.90;;;;;;;;;;6310136;28;20048;-77
2022/07/09 11:05:58;;;;;;;1.92;0.77;;;;;;;;;;6309724;28;20120;-78
2022/07/09 11:09:00;;;;;;;2.63;0.60;;;;;;;;;;6317012;28;20237;-77
2022/07/09 11:12:02;;;;;;;1.35;0.80;;;;;;;;;;6313403;28;20045;-79
2022/07/09 11:15:17;;;;;;;1.40;0.70;;;;;;;;;;6313224;28;20094;-81
2022/07/09 11:18:19;;;;;;;1.23;1.00;;;;;;;;;;6312367;28;20040;-81
2022/07/09 11:21:23;;;;;;;3.42;1.17;;;;;;;;;;6310832;28;20056;-74
2022/07/09 11:24:24;;;;;;;1.20;1.00;;;;;;;;;;6311772;28;20221;-80
2022/07/09 11:27:26;;;;;;;2.03;0.80;;;;;;;;;;6305446;28;20052;-76
2022/07/09 11:30:30;;;;;;;1.70;0.80;;;;;;;;;;6312291;28;20067;-78
2022/07/09 11:36:52;;;;;;;1.38;0.77;;;;;;;;;;6310728;28;20036;-73
2022/07/09 11:39:54;;;;;;;1.13;0.60;;;;;;;;;;6306737;28;20045;-78
2022/07/09 11:42:55;;;;;;;;;;;;;;;;;;6304179;28;20106;-79
2022/07/09 11:45:58;;;;;;;1.63;0.60;;;;;;;;;;6314334;28;19923;-86
2022/07/09 11:49:00;;;;;;;2.75;1.05;;;;;;;;;;6307188;28;20052;-83
2022/07/09 11:52:02;;;;;;;1.70;1.17;;;;;;;;;;6304834;28;20106;-82
2022/07/09 11:55:05;;;;;;;0.73;0.68;;;;;;;;;;6306719;28;20052;-78
2022/07/09 11:58:08;;;;;;;0.98;0.80;;;;;;;;;;6305435;28;20134;-78
2022/07/09 12:01:12;;;;;;;1.27;0.60;;;;;;;;;;6305999;28;20237;-77
2022/07/09 12:04:19;;;;;;;1.98;0.80;;;;;;;;;;6304643;28;20052;-78
2022/07/09 12:07:21;;;;;;;1.55;1.00;;;;;;;;;;6305801;28;20139;-82
2022/07/09 12:10:27;;;;;;;1.45;0.75;;;;;;;;;;6313259;28;20055;-81
2022/07/09 12:13:29;;;;;;;1.17;0.60;;;;;;;;;;6305649;28;20101;-83
2022/07/09 12:16:32;;;;;;;0.73;0.60;;;;;;;;;;6308367;28;20051;-77
2022/07/09 12:19:34;;;;;;;1.40;0.70;;;;;;;;;;6308187;28;20235;-83
2022/07/09 12:22:36;;;;;;;1.58;0.90;;;;;;;;;;6307613;28;20055;-78
2022/07/09 12:25:38;;;;;;;1.02;0.80;;;;;;;;;;6306028;28;20400;-82
2022/07/09 12:28:40;;;;;;;1.80;1.00;;;;;;;;;;6304354;28;20052;-77
2022/07/09 12:31:43;;;;;;;2.95;0.85;;;;;;;;;;6312386;28;20060;-80
2022/07/09 12:34:45;;;;;;;1.02;0.93;;;;;;;;;;6315903;28;20047;-76
2022/07/09 12:37:46;;;;;;;1.05;0.80;;;;;;;;;;6314545;28;20101;-78
2022/07/09 12:40:48;;;;;;;3.38;0.75;;;;;;;;;;6310816;28;20057;-77
2022/07/09 12:43:50;;;;;;;1.23;0.80;;;;;;;;;;6310137;28;20090;-80
2022/07/09 12:46:53;;;;;;;1.60;0.90;;;;;;;;;;6314289;28;20055;-80
2022/07/09 12:49:55;;;;;;;2.83;0.70;;;;;;;;;;6311584;28;20101;-79
2022/07/09 12:52:57;;;;;;;3.53;0.90;;;;;;;;;;6311762;28;20051;-79
2022/07/09 12:55:58;;;;;;;1.40;0.95;;;;;;;;;;6311439;28;20086;-80
2022/07/09 12:59:00;;;;;;;2.35;0.75;;;;;;;;;;6314507;28;20048;-78
2022/07/09 13:02:04;;;;;;;1.45;0.90;;;;;;;;;;6312917;28;20048;-78
2022/07/09 13:05:06;;;;;;;1.77;0.90;;;;;;;;;;6317929;28;20080;-79
2022/07/09 13:08:08;;;;;;;1.75;0.90;;;;;;;;;;6314091;28;20275;-79
2022/07/09 13:11:10;;;;;;;3.30;1.45;;;;;;;;;;6316879;28;20052;-80
2022/07/09 13:14:11;;;;;;;2.30;0.80;;;;;;;;;;6315341;28;20059;-86
2022/07/09 13:17:14;;;;;;;1.02;0.65;;;;;;;;;;6311890;28;20079;-78
2022/07/09 13:20:17;;;;;;;1.40;0.68;;;;;;;;;;6317057;28;20058;-80
2022/07/09 13:23:18;;;;;;;1.45;0.80;;;;;;;;;;6314823;28;20048;-82
2022/07/09 13:26:20;;;;;;;1.65;0.73;;;;;;;;;;6316652;28;20236;-84
2022/07/09 13:29:22;;;;;;;2.40;0.60;;;;;;;;;;6315039;28;20044;-85
2022/07/09 13:32:26;;;;;;;1.05;0.70;;;;;;;;;;6310454;28;20061;-85
2022/07/09 13:35:28;;;;;;;2.22;0.80;;;;;;;;;;6312452;28;20043;-79
2022/07/09 13:38:30;;;;;;;0.88;0.70;;;;;;;;;;6313848;28;20053;-85
2022/07/09 13:41:32;;;;;;;1.00;0.70;;;;;;;;;;6310185;28;20059;-87
2022/07/09 13:44:33;;;;;;;0.70;0.70;;;;;;;;;;6309821;28;20327;-84
2022/07/09 13:47:36;;;;;;;1.77;0.80;;;;;;;;;;6310386;28;20064;-86
2022/07/09 13:50:38;;;;;;;3.88;0.90;;;;;;;;;;6307490;28;20099;-91
2022/07/09 13:53:40;;;;;;;;;;;;;;;;;;6309284;28;20125;-86
2022/07/09 13:56:42;;;;;;;2.00;0.80;;;;;;;;;;6308582;28;20273;-84
2022/07/09 13:59:44;;;;;;;3.15;1.00;;;;;;;;;;6308164;28;20056;-84
2022/07/09 14:02:47;;;;;;;1.17;1.00;;;;;;;;;;6307764;28;20131;-90
2022/07/09 14:05:49;;;;;;;1.25;0.80;;;;;;;;;;6308112;28;20091;-88
2022/07/09 14:08:51;;;;;;;0.60;0.60;;;;;;;;;;6303496;28;20060;-88
2022/07/09 14:11:53;;;;;;;1.40;0.90;;;;;;;;;;6290372;28;20103;-86
2022/07/09 14:14:54;;;;;;;1.55;0.80;;;;;;;;;;6306223;28;20060;-86
2022/07/09 14:17:58;;;;;;;1.08;0.70;;;;;;;;;;6302233;28;20052;-86
2022/07/09 14:20:59;;;;;;;4.18;1.15;;;;;;;;;;6305556;28;20052;-91
2022/07/09 14:24:01;;;;;;;5.57;0.88;;;;;;;;;;6305773;28;20056;-87
2022/07/09 14:27:04;;;;;;;3.05;0.75;;;;;;;;;;6305713;28;20428;-90
2022/07/09 14:30:07;;;;;;;2.72;1.08;;;;;;;;;;6308527;28;20044;-88
2022/07/09 14:33:11;;;;;;;2.03;1.60;;;;;;;;;;6292529;28;20054;-88
2022/07/09 14:36:13;;;;;;;5.25;0.80;;;;;;;;;;6303886;28;20059;-89
2022/07/09 14:39:15;;;;;;;1.25;0.90;;;;;;;;;;6307357;28;20102;-90
2022/07/09 14:42:17;;;;;;;2.05;0.88;;;;;;;;;;6304098;28;20200;-82
2022/07/09 14:45:19;;;;;;;1.80;0.80;;;;;;;;;;6304658;28;20056;-79
2022/07/09 14:48:22;;;;;;;;;;;;;;;;;;6305053;28;20450;-86
2022/07/09 14:51:24;;;;;;;2.33;0.90;;;;;;;;;;6314139;28;19924;-83
2022/07/09 14:54:26;;;;;;;1.87;1.10;;;;;;;;;;6312293;28;20056;-79
2022/07/09 14:57:27;;;;;;;1.30;0.90;;;;;;;;;;6305965;28;20051;-78
2022/07/09 15:00:29;;;;;;;3.87;1.37;;;;;;;;;;6307598;28;20071;-79
2022/07/09 15:03:32;;;;;;;1.80;0.90;;;;;;;;;;6305650;28;20055;-79
2022/07/09 15:06:34;;;;;;;1.63;0.65;;;;;;;;;;6303098;28;20055;-85
2022/07/09 15:09:36;;;;;;;3.67;0.88;;;;;;;;;;6301046;28;20126;-82
2022/07/09 15:12:37;;;;;;;1.17;0.85;;;;;;;;;;6302743;28;20051;-86
2022/07/09 15:15:39;;;;;;;1.43;1.00;;;;;;;;;;6305401;28;20067;-81
2022/07/09 15:18:42;;;;;;;3.80;1.00;;;;;;;;;;6301476;28;20048;-82
2022/07/09 15:21:44;;;;;;;2.92;1.00;;;;;;;;;;6304667;28;20252;-80
2022/07/09 15:24:46;;;;;;;0.77;0.60;;;;;;;;;;6301857;28;20063;-82
2022/07/09 15:27:47;;;;;;;1.08;0.80;;;;;;;;;;6304097;28;20052;-81
2022/07/09 15:30:49;;;;;;;2.77;0.80;;;;;;;;;;6303337;28;20051;-83
2022/07/09 15:33:52;;;;;;;1.10;0.90;;;;;;;;;;6305077;28;20412;-82
2022/07/09 15:36:54;;;;;;;4.50;1.10;;;;;;;;;;6307736;28;20330;-81
2022/07/09 15:39:55;;;;;;;1.02;0.85;;;;;;;;;;6304467;28;20064;-82
2022/07/09 15:42:57;;;;;;;2.03;1.10;;;;;;;;;;6305493;28;20217;-82
2022/07/09 15:45:59;;;;;;;2.13;0.83;;;;;;;;;;6304059;28;20596;-82
2022/07/09 15:49:02;;;;;;;2.80;1.00;;;;;;;;;;6317484;28;20074;-78
2022/07/09 15:52:05;;;;;;;2.53;1.00;;;;;;;;;;6311502;28;20048;-80
2022/07/09 15:55:08;;;;;;;3.80;1.00;;;;;;;;;;6307725;28;20052;-80
2022/07/09 15:58:10;;;;;;;3.55;1.00;;;;;;;;;;6303731;28;20052;-81
2022/07/09 16:01:11;;;;;;;7.43;0.90;;;;;;;;;;6307996;28;20051;-78
2022/07/09 16:04:14;;;;;;;2.40;0.95;;;;;;;;;;6303600;28;20056;-81
2022/07/09 16:07:16;;;;;;;2.75;1.00;;;;;;;;;;6305112;28;20060;-78
2022/07/09 16:10:18;;;;;;;2.15;1.10;;;;;;;;;;6310604;28;20060;-78
2022/07/09 16:13:18;;;;;;;1.15;0.90;;;;;;;;;;6308344;28;20059;-78
2022/07/09 16:16:20;;;;;;;2.55;0.98;;;;;;;;;;6307408;28;20281;-82
2022/07/09 16:19:23;;;;;;;2.92;1.00;;;;;;;;;;6311303;28;20126;-80
2022/07/09 16:22:26;;;;;;;2.17;1.10;;;;;;;;;;6306559;28;20061;-82
2022/07/09 16:25:28;;;;;;;1.92;1.00;;;;;;;;;;6308259;28;20108;-81
2022/07/09 16:28:30;;;;;;;1.27;0.70;;;;;;;;;;6307001;28;20048;-80
2022/07/09 16:31:31;;;;;;;5.25;0.95;;;;;;;;;;6307368;28;20349;-85
2022/07/09 16:34:35;;;;;;;2.42;0.98;;;;;;;;;;6311149;28;20048;-78
2022/07/09 16:37:36;;;;;;;2.65;1.00;;;;;;;;;;6315027;28;20063;-85
2022/07/09 16:40:39;;;;;;;3.45;1.20;;;;;;;;;;6310658;28;20055;-86
2022/07/09 16:43:41;;;;;;;2.20;0.88;;;;;;;;;;6313959;28;20056;-80
2022/07/09 16:46:42;;;;;;;2.63;1.00;;;;;;;;;;6311993;28;20059;-81
2022/07/09 16:49:45;;;;;;;2.40;0.80;;;;;;;;;;6317295;28;20347;-81
2022/07/09 16:52:47;;;;;;;1.70;0.90;;;;;;;;;;6309135;28;20048;-85
2022/07/09 16:55:49;;;;;;;2.90;1.02;;;;;;;;;;6312442;28;20052;-80
2022/07/09 16:58:50;;;;;;;2.85;0.90;;;;;;;;;;6311554;28;20236;-82
2022/07/09 17:05:04;;;;;;;1.42;0.80;;;;;;;;;;6273082;28;20055;-81
2022/07/09 17:08:05;;;;;;;1.38;0.90;;;;;;;;;;6274485;28;20623;-82
2022/07/09 17:11:07;;;;;;;5.07;0.90;;;;;;;;;;6276188;28;20052;-84
2022/07/09 17:14:09;;;;;;;1.52;0.70;;;;;;;;;;6273330;28;20049;-80
2022/07/09 17:17:11;;;;;;;4.10;0.90;;;;;;;;;;6272685;28;20055;-78
2022/07/09 17:20:14;;;;;;;2.60;0.90;;;;;;;;;;6271798;28;20065;-79
2022/07/09 17:23:15;;;;;;;2.58;0.98;;;;;;;;;;6276898;28;20053;-83
2022/07/09 17:26:17;;;;;;;1.40;1.00;;;;;;;;;;6273990;28;20075;-81
2022/07/09 17:29:19;;;;;;;2.63;0.85;;;;;;;;;;6274134;28;20067;-80
2022/07/09 17:32:21;;;;;;;1.70;0.90;;;;;;;;;;6274954;28;20121;-81
2022/07/09 17:35:25;;;;;;;1.50;0.88;;;;;;;;;;6274279;28;20045;-84
2022/07/09 17:38:30;;;;;;;3.45;1.10;;;;;;;;;;6272493;28;20239;-80
2022/07/09 17:41:31;;;;;;;2.03;1.00;;;;;;;;;;6272302;28;20058;-88
2022/07/09 17:44:33;;;;;;;2.25;1.10;;;;;;;;;;6263207;28;20057;-83
2022/07/09 17:47:35;;;;;;;4.20;0.90;;;;;;;;;;6265586;28;20057;-86
2022/07/09 17:50:38;;;;;;;1.25;0.90;;;;;;;;;;6265701;28;20247;-83
2022/07/09 17:53:41;;;;;;;2.25;0.75;;;;;;;;;;6267855;28;20073;-82
2022/07/09 17:56:43;;;;;;;;;;;;;;;;;;6266398;28;20393;-81
2022/07/09 17:59:44;;;;;;;3.63;0.90;;;;;;;;;;6276127;28;19916;-84
2022/07/09 18:02:47;;;;;;;2.58;0.88;;;;;;;;;;6267820;28;20061;-85
2022/07/09 18:05:50;;;;;;;2.10;1.00;;;;;;;;;;6251647;28;20057;-84
2022/07/09 18:08:51;;;;;;;5.00;1.10;;;;;;;;;;6253417;28;20057;-82
2022/07/09 18:11:53;;;;;;;3.97;0.90;;;;;;;;;;6252568;28;20045;-80
2022/07/09 18:14:55;;;;;;;2.67;0.90;;;;;;;;;;6250808;28;20053;-84
2022/07/09 18:17:57;;;;;;;2.20;0.88;;;;;;;;;;6253535;28;20054;-87
2022/07/09 18:21:00;;;;;;;2.50;0.93;;;;;;;;;;6251489;28;20057;-84
2022/07/09 18:24:01;;;;;;;1.58;0.80;;;;;;;;;;6249832;28;20332;-83